Time;durP1;ratioP1;P1;durP2;ratioP2;P2;SDS_P1;SDS_P2;PMS_P1;PMS_P2;Temp;Humidity;BMP_temperature;BMP_pressure;BME280_temperature;BME280_humidity;BME280_pressure;Samples;Min_cycle;Max_cycle;Signal;HPM_P1;HPM_P2
2021/11/20 00:01:54;;;;;;;0.00;0.00;;;;;14.00;100799.00;;;;5110033;28;20051;-82
2021/11/20 00:04:27;;;;;;;0.00;0.00;;;;;14.00;100791.00;;;;5109772;28;20049;-81
2021/11/20 00:06:59;;;;;;;6.18;0.63;;;;;13.90;100802.00;;;;5109740;28;20567;-80
2021/11/20 00:09:28;;;;;;;;;;;;;13.90;100816.00;;;;5108923;28;20670;-82
2021/11/20 00:12:03;;;;;;;0.00;0.00;;;;;13.80;100803.00;;;;5109109;28;19949;-82
2021/11/20 00:14:34;;;;;;;0.00;0.00;;;;;13.70;100822.00;;;;5109061;28;20089;-80
2021/11/20 00:17:05;;;;;;;0.00;0.00;;;;;13.70;100819.00;;;;5107693;28;20051;-79
2021/11/20 00:19:35;;;;;;;0.00;0.00;;;;;13.70;100821.00;;;;5107935;28;20047;-80
2021/11/20 00:22:17;;;;;;;0.00;0.00;;;;;13.60;100833.00;;;;5108167;28;20043;-80
2021/11/20 00:24:51;;;;;;;0.00;0.00;;;;;13.70;100814.00;;;;5107887;28;20533;-83
2021/11/20 00:27:25;;;;;;;0.00;0.00;;;;;13.60;100818.00;;;;5108032;28;20749;-84
2021/11/20 00:30:15;;;;;;;0.00;0.00;;;;;13.50;100831.00;;;;5107893;28;20047;-80
2021/11/20 00:33:07;;;;;;;0.00;0.00;;;;;13.50;100826.00;;;;5070933;28;20423;-82
2021/11/20 00:35:38;;;;;;;;;;;;;13.40;100831.00;;;;5087618;28;20975;-82
2021/11/20 00:38:18;;;;;;;0.00;0.00;;;;;13.40;100826.00;;;;5088669;28;19954;-81
2021/11/20 00:40:56;;;;;;;0.13;0.13;;;;;13.40;100829.00;;;;5087891;28;20043;-83
2021/11/20 00:43:26;;;;;;;0.00;0.00;;;;;13.40;100843.00;;;;5087515;28;20058;-79
2021/11/20 00:45:57;;;;;;;0.00;0.00;;;;;13.40;100850.00;;;;5087372;28;20048;-79
2021/11/20 00:48:27;;;;;;;0.00;0.00;;;;;13.50;100836.00;;;;5087533;28;20060;-81
2021/11/20 00:51:01;;;;;;;2.83;0.25;;;;;13.50;100835.00;;;;5089262;28;20059;-83
2021/11/20 00:53:31;;;;;;;0.00;0.00;;;;;13.40;100833.00;;;;5088398;28;20044;-80
2021/11/20 00:56:01;;;;;;;0.00;0.00;;;;;13.60;100830.00;;;;5086951;28;20526;-78
2021/11/20 00:58:31;;;;;;;0.00;0.00;;;;;13.60;100823.00;;;;5086424;28;20173;-79
2021/11/20 01:01:11;;;;;;;0.00;0.00;;;;;14.20;100836.00;;;;5087144;28;20101;-80
2021/11/20 01:03:41;;;;;;;0.00;0.00;;;;;14.50;100845.00;;;;5070545;28;20542;-81
2021/11/20 01:06:11;;;;;;;0.00;0.00;;;;;14.30;100846.00;;;;5087228;28;20423;-78
2021/11/20 01:08:46;;;;;;;0.00;0.00;;;;;14.10;100833.00;;;;5086592;28;20062;-82
2021/11/20 01:11:31;;;;;;;0.00;0.00;;;;;14.00;100831.00;;;;5086655;28;20143;-78
2021/11/20 01:14:06;;;;;;;0.00;0.00;;;;;13.90;100854.00;;;;5087349;28;20047;-81
2021/11/20 01:16:38;;;;;;;0.00;0.00;;;;;13.80;100852.00;;;;5086475;28;20109;-79
2021/11/20 01:19:10;;;;;;;0.00;0.00;;;;;13.70;100850.00;;;;5086494;28;20083;-80
2021/11/20 01:22:03;;;;;;;0.00;0.00;;;;;13.70;100848.00;;;;5086777;28;20052;-83
2021/11/20 01:24:46;;;;;;;0.00;0.00;;;;;13.70;100846.00;;;;5086240;28;20142;-81
2021/11/20 01:27:20;;;;;;;0.00;0.00;;;;;13.70;100837.00;;;;5086307;28;20498;-83
2021/11/20 01:29:57;;;;;;;0.00;0.00;;;;;13.70;100858.00;;;;5085454;28;20786;-79
2021/11/20 01:32:26;;;;;;;0.30;0.22;;;;;13.60;100855.00;;;;5086045;28;20058;-81
2021/11/20 01:34:56;;;;;;;0.98;0.25;;;;;13.50;100860.00;;;;5086560;28;20220;-80
2021/11/20 01:37:26;;;;;;;0.00;0.00;;;;;13.40;100847.00;;;;5089775;28;20056;-83
2021/11/20 01:39:56;;;;;;;0.00;0.00;;;;;13.40;100847.00;;;;5071526;28;20056;-81
2021/11/20 01:42:31;;;;;;;0.20;0.10;;;;;13.30;100844.00;;;;5086270;28;20048;-82
2021/11/20 01:45:23;;;;;;;1.23;0.38;;;;;13.20;100851.00;;;;5085803;28;20067;-83
2021/11/20 01:48:31;;;;;;;0.35;0.35;;;;;13.00;100855.00;;;;5085983;28;20115;-85
2021/11/20 01:51:23;;;;;;;0.00;0.00;;;;;13.10;100851.00;;;;5083893;28;20048;-85
2021/11/20 01:54:15;;;;;;;0.00;0.00;;;;;13.00;100851.00;;;;5085200;28;20552;-81
2021/11/20 01:57:41;;;;;;;0.00;0.00;;;;;12.90;100852.00;;;;5086423;28;20048;-80
2021/11/20 02:00:18;;;;;;;0.00;0.00;;;;;12.90;100852.00;;;;5085701;28;20395;-81
2021/11/20 02:03:14;;;;;;;0.00;0.00;;;;;12.80;100839.00;;;;5086918;28;20439;-80
2021/11/20 02:06:19;;;;;;;0.68;0.28;;;;;12.80;100843.00;;;;5085469;28;20044;-82
2021/11/20 02:09:26;;;;;;;0.03;0.00;;;;;12.80;100854.00;;;;5085255;28;20051;-84
2021/11/20 02:12:25;;;;;;;0.75;0.10;;;;;12.80;100833.00;;;;5084864;28;20074;-83
2021/11/20 02:15:00;;;;;;;0.00;0.00;;;;;12.80;100831.00;;;;5084837;28;20515;-84
2021/11/20 02:17:45;;;;;;;0.00;0.00;;;;;12.80;100825.00;;;;5084512;28;20055;-83
2021/11/20 02:20:31;;;;;;;0.00;0.00;;;;;12.80;100827.00;;;;5085033;28;20476;-82
2021/11/20 02:23:01;;;;;;;0.43;0.40;;;;;12.70;100831.00;;;;5083841;28;20054;-81
2021/11/20 02:25:30;;;;;;;0.22;0.22;;;;;12.70;100834.00;;;;5085958;28;20079;-84
2021/11/20 02:28:07;;;;;;;0.00;0.00;;;;;12.70;100830.00;;;;5085356;28;20075;-83
2021/11/20 02:30:49;;;;;;;0.00;0.00;;;;;12.60;100824.00;;;;5085484;28;20060;-85
2021/11/20 02:33:28;;;;;;;0.00;0.00;;;;;12.50;100821.00;;;;5086212;28;20052;-83
2021/11/20 02:36:06;;;;;;;0.00;0.00;;;;;12.60;100825.00;;;;5089200;28;20913;-82
2021/11/20 02:38:44;;;;;;;0.55;0.35;;;;;12.70;100812.00;;;;5089046;28;20067;-83
2021/11/20 02:41:17;;;;;;;0.00;0.00;;;;;12.80;100826.00;;;;5089523;28;20056;-83
2021/11/20 02:43:51;;;;;;;0.63;0.63;;;;;12.90;100826.00;;;;5089242;28;20056;-83
2021/11/20 02:46:28;;;;;;;1.90;0.50;;;;;12.90;100819.00;;;;5090672;28;20040;-85
2021/11/20 02:49:01;;;;;;;2.65;0.90;;;;;12.80;100817.00;;;;5089088;28;20578;-84
2021/11/20 02:51:34;;;;;;;0.10;0.10;;;;;12.80;100808.00;;;;5089532;28;20048;-83
2021/11/20 02:54:19;;;;;;;0.52;0.25;;;;;12.70;100806.00;;;;5091249;28;20520;-85
2021/11/20 02:57:11;;;;;;;0.40;0.40;;;;;12.70;100815.00;;;;5089251;28;20510;-84
2021/11/20 02:59:42;;;;;;;0.50;0.45;;;;;12.60;100815.00;;;;5087810;28;20048;-80
2021/11/20 03:02:18;;;;;;;0.05;0.05;;;;;12.60;100798.00;;;;5088895;28;20055;-81
2021/11/20 03:04:48;;;;;;;0.00;0.00;;;;;12.60;100789.00;;;;5089042;28;20044;-81
2021/11/20 03:07:19;;;;;;;0.32;0.32;;;;;12.60;100802.00;;;;5089255;28;20098;-83
2021/11/20 03:09:50;;;;;;;0.00;0.00;;;;;12.50;100803.00;;;;5088848;28;20152;-81
2021/11/20 03:12:24;;;;;;;0.22;0.22;;;;;12.30;100798.00;;;;5089692;28;20154;-82
2021/11/20 03:14:59;;;;;;;0.00;0.00;;;;;12.20;100774.00;;;;5088694;28;20048;-82
2021/11/20 03:17:34;;;;;;;0.00;0.00;;;;;12.20;100774.00;;;;5087472;28;20121;-82
2021/11/20 03:20:09;;;;;;;0.00;0.00;;;;;12.20;100778.00;;;;5088196;28;20051;-83
2021/11/20 03:22:47;;;;;;;0.00;0.00;;;;;12.20;100781.00;;;;5089775;28;20047;-82
2021/11/20 03:25:18;;;;;;;0.00;0.00;;;;;12.10;100781.00;;;;5088236;28;20048;-82
2021/11/20 03:27:49;;;;;;;0.00;0.00;;;;;12.10;100782.00;;;;5088435;28;20084;-83
2021/11/20 03:30:20;;;;;;;0.00;0.00;;;;;12.10;100783.00;;;;5088180;28;20489;-81
2021/11/20 03:32:49;;;;;;;0.00;0.00;;;;;12.00;100777.00;;;;5087913;28;20461;-78
2021/11/20 03:35:23;;;;;;;0.00;0.00;;;;;12.00;100771.00;;;;5087507;28;20135;-82
2021/11/20 03:37:57;;;;;;;0.03;0.03;;;;;11.80;100783.00;;;;5072682;28;20048;-82
2021/11/20 03:40:30;;;;;;;0.00;0.00;;;;;11.70;100765.00;;;;5089002;28;20465;-81
2021/11/20 03:43:00;;;;;;;0.00;0.00;;;;;11.80;100791.00;;;;5089720;28;20064;-81
2021/11/20 03:45:32;;;;;;;0.00;0.00;;;;;11.80;100769.00;;;;5087075;28;20044;-79
2021/11/20 03:48:05;;;;;;;0.00;0.00;;;;;11.80;100763.00;;;;5088152;28;20044;-82
2021/11/20 03:50:36;;;;;;;0.00;0.00;;;;;11.80;100755.00;;;;5087872;28;20528;-82
2021/11/20 03:53:06;;;;;;;0.00;0.00;;;;;11.80;100760.00;;;;5089978;28;20044;-80
2021/11/20 03:55:39;;;;;;;0.00;0.00;;;;;11.70;100742.00;;;;5087662;28;20055;-79
2021/11/20 03:58:10;;;;;;;0.68;0.68;;;;;11.70;100766.00;;;;5088540;28;20636;-79
2021/11/20 04:00:43;;;;;;;0.00;0.00;;;;;11.60;100760.00;;;;5088953;28;20052;-83
2021/11/20 04:03:20;;;;;;;0.00;0.00;;;;;11.50;100746.00;;;;5087345;28;20561;-83
2021/11/20 04:05:52;;;;;;;0.00;0.00;;;;;11.50;100753.00;;;;5087533;28;20075;-82
2021/11/20 04:08:27;;;;;;;0.00;0.00;;;;;11.50;100743.00;;;;5088039;28;20094;-85
2021/11/20 04:11:10;;;;;;;0.00;0.00;;;;;11.50;100741.00;;;;5087622;28;20155;-81
2021/11/20 04:13:42;;;;;;;0.17;0.17;;;;;11.50;100755.00;;;;5088703;28;20032;-80
2021/11/20 04:16:14;;;;;;;0.10;0.10;;;;;11.60;100723.00;;;;5087887;28;20044;-79
2021/11/20 04:18:46;;;;;;;0.03;0.03;;;;;11.60;100753.00;;;;5087983;28;20063;-78
2021/11/20 04:21:17;;;;;;;0.00;0.00;;;;;11.60;100747.00;;;;5071933;28;20048;-83
2021/11/20 04:23:48;;;;;;;0.00;0.00;;;;;11.60;100748.00;;;;5087412;28;20048;-79
2021/11/20 04:26:28;;;;;;;0.00;0.00;;;;;11.50;100731.00;;;;5087140;28;20621;-78
2021/11/20 04:28:58;;;;;;;0.00;0.00;;;;;11.40;100723.00;;;;5087566;28;20072;-84
2021/11/20 04:31:31;;;;;;;0.00;0.00;;;;;11.50;100725.00;;;;5088905;28;20521;-77
2021/11/20 04:34:02;;;;;;;;;;;;;11.50;100733.00;;;;5090546;28;20097;-81
2021/11/20 04:36:33;;;;;;;0.00;0.00;;;;;11.50;100722.00;;;;5071317;28;19923;-80
2021/11/20 04:39:05;;;;;;;0.00;0.00;;;;;11.40;100720.00;;;;5087447;28;20053;-83
2021/11/20 04:41:35;;;;;;;0.00;0.00;;;;;11.40;100716.00;;;;5087400;28;20040;-80
2021/11/20 04:44:05;;;;;;;0.00;0.00;;;;;11.30;100731.00;;;;5087270;28;20097;-82
2021/11/20 04:46:35;;;;;;;0.00;0.00;;;;;11.30;100728.00;;;;5087289;28;20047;-81
2021/11/20 04:49:05;;;;;;;0.00;0.00;;;;;11.30;100712.00;;;;5087152;28;20044;-80
2021/11/20 04:51:35;;;;;;;0.00;0.00;;;;;11.30;100726.00;;;;5086818;28;20059;-83
2021/11/20 04:54:05;;;;;;;0.00;0.00;;;;;11.40;100718.00;;;;5087361;28;20410;-82
2021/11/20 04:56:34;;;;;;;0.00;0.00;;;;;11.40;100712.00;;;;5086544;28;20044;-82
2021/11/20 04:59:04;;;;;;;0.10;0.10;;;;;11.40;100720.00;;;;5086467;28;20083;-80
2021/11/20 05:01:34;;;;;;;0.00;0.00;;;;;11.40;100720.00;;;;5086679;28;20058;-82
2021/11/20 05:04:04;;;;;;;0.00;0.00;;;;;11.30;100718.00;;;;5086950;28;20072;-85
2021/11/20 05:06:37;;;;;;;0.00;0.00;;;;;11.40;100710.00;;;;5086223;28;20081;-85
2021/11/20 05:09:07;;;;;;;0.00;0.00;;;;;11.40;100694.00;;;;5070326;28;20495;-84
2021/11/20 05:11:45;;;;;;;0.00;0.00;;;;;11.40;100689.00;;;;5086291;28;20140;-80
2021/11/20 05:14:15;;;;;;;0.00;0.00;;;;;11.40;100690.00;;;;5086258;28;20102;-81
2021/11/20 05:16:48;;;;;;;0.00;0.00;;;;;11.30;100699.00;;;;5092965;28;20048;-80
2021/11/20 05:19:18;;;;;;;0.00;0.00;;;;;11.30;100697.00;;;;5097408;28;20044;-81
2021/11/20 05:21:48;;;;;;;0.22;0.22;;;;;11.30;100704.00;;;;5081384;28;20090;-80
2021/11/20 05:24:21;;;;;;;0.00;0.00;;;;;11.20;100686.00;;;;5098706;28;20120;-81
2021/11/20 05:26:53;;;;;;;0.00;0.00;;;;;11.20;100687.00;;;;5088482;28;20050;-82
2021/11/20 05:31:58;;;;;;;0.00;0.00;;;;;11.10;100688.00;;;;5086236;28;20604;-86
2021/11/20 05:34:34;;;;;;;0.00;0.00;;;;;11.10;100695.00;;;;5086246;28;20044;-82
2021/11/20 05:37:04;;;;;;;0.00;0.00;;;;;11.10;100694.00;;;;5085800;28;20039;-84
2021/11/20 05:39:34;;;;;;;0.00;0.00;;;;;11.10;100682.00;;;;5087136;28;20040;-86
2021/11/20 05:42:05;;;;;;;0.00;0.00;;;;;11.00;100694.00;;;;5086371;28;20507;-82
2021/11/20 05:44:35;;;;;;;0.00;0.00;;;;;10.90;100693.00;;;;5086318;28;20054;-81
2021/11/20 05:47:08;;;;;;;0.00;0.00;;;;;11.00;100684.00;;;;5085744;28;20653;-82
2021/11/20 05:49:42;;;;;;;0.00;0.00;;;;;10.90;100668.00;;;;5086013;28;20474;-81
2021/11/20 05:52:17;;;;;;;0.00;0.00;;;;;11.00;100662.00;;;;5085606;28;20499;-81
2021/11/20 05:54:47;;;;;;;0.00;0.00;;;;;11.00;100680.00;;;;5087971;28;20044;-85
2021/11/20 05:57:24;;;;;;;0.00;0.00;;;;;10.90;100681.00;;;;5086434;28;20044;-82
2021/11/20 06:00:13;;;;;;;0.00;0.00;;;;;10.70;100696.00;;;;5085718;28;20056;-83
2021/11/20 06:02:56;;;;;;;0.00;0.00;;;;;10.70;100669.00;;;;5085707;28;20055;-85
2021/11/20 06:05:45;;;;;;;0.00;0.00;;;;;10.60;100690.00;;;;5086882;28;20059;-86
2021/11/20 06:08:16;;;;;;;;;;;;;10.70;100688.00;;;;5085613;28;20071;-83
2021/11/20 06:10:46;;;;;;;0.00;0.00;;;;;10.60;100670.00;;;;5085962;28;20011;-83
2021/11/20 06:13:18;;;;;;;0.00;0.00;;;;;10.50;100679.00;;;;5085908;28;20047;-84
2021/11/20 06:16:03;;;;;;;0.00;0.00;;;;;10.50;100661.00;;;;5085882;28;20059;-85
2021/11/20 06:18:33;;;;;;;0.00;0.00;;;;;10.50;100670.00;;;;5085363;28;20067;-85
2021/11/20 06:21:05;;;;;;;0.00;0.00;;;;;10.50;100672.00;;;;5086286;28;20050;-85
2021/11/20 06:23:37;;;;;;;0.25;0.25;;;;;10.70;100675.00;;;;5085724;28;20469;-83
2021/11/20 06:26:11;;;;;;;0.00;0.00;;;;;10.70;100668.00;;;;5085531;28;20044;-87
2021/11/20 06:28:41;;;;;;;0.00;0.00;;;;;10.60;100657.00;;;;5085693;28;20044;-83
2021/11/20 06:31:19;;;;;;;0.00;0.00;;;;;10.50;100670.00;;;;5085765;28;20059;-86
2021/11/20 06:34:06;;;;;;;0.00;0.00;;;;;10.40;100667.00;;;;5085343;28;20051;-84
2021/11/20 06:36:59;;;;;;;0.00;0.00;;;;;10.60;100655.00;;;;5075897;28;20066;-84
2021/11/20 06:39:51;;;;;;;0.00;0.00;;;;;10.60;100665.00;;;;5082241;28;20505;-84
2021/11/20 06:42:21;;;;;;;0.10;0.00;;;;;10.60;100644.00;;;;5085338;28;20036;-79
2021/11/20 06:44:52;;;;;;;0.00;0.00;;;;;10.50;100671.00;;;;5086896;28;20047;-84
2021/11/20 06:47:22;;;;;;;0.00;0.00;;;;;10.30;100655.00;;;;5085532;28;20110;-81
2021/11/20 06:49:53;;;;;;;0.00;0.00;;;;;10.30;100663.00;;;;5084945;28;20044;-84
2021/11/20 06:52:22;;;;;;;0.00;0.00;;;;;10.30;100664.00;;;;5084983;28;20055;-79
2021/11/20 06:55:13;;;;;;;0.00;0.00;;;;;10.30;100657.00;;;;5085970;28;20059;-81
2021/11/20 07:01:01;;;;;;;0.00;0.00;;;;;10.30;100666.00;;;;5085112;28;20075;-79
2021/11/20 07:03:52;;;;;;;0.00;0.00;;;;;10.20;100659.00;;;;5085220;28;20040;-83
2021/11/20 07:06:31;;;;;;;0.00;0.00;;;;;10.20;100651.00;;;;5085316;28;20040;-88
2021/11/20 07:09:02;;;;;;;0.00;0.00;;;;;10.30;100651.00;;;;5086361;28;20036;-85
2021/11/20 07:11:32;;;;;;;0.10;0.10;;;;;10.20;100651.00;;;;5088039;28;20054;-82
2021/11/20 07:14:02;;;;;;;0.00;0.00;;;;;10.30;100650.00;;;;5088849;28;20046;-84
2021/11/20 07:16:32;;;;;;;0.00;0.00;;;;;10.20;100666.00;;;;5084681;28;20048;-80
2021/11/20 07:19:02;;;;;;;0.00;0.00;;;;;10.20;100672.00;;;;5068728;28;20109;-82
2021/11/20 07:22:10;;;;;;;0.00;0.00;;;;;10.20;100672.00;;;;5087138;28;20052;-85
2021/11/20 07:24:52;;;;;;;0.00;0.00;;;;;10.20;100673.00;;;;5087163;28;20051;-82
2021/11/20 07:27:23;;;;;;;0.00;0.00;;;;;10.40;100667.00;;;;5079980;28;20113;-83
2021/11/20 07:29:52;;;;;;;0.00;0.00;;;;;10.40;100672.00;;;;5089369;28;20578;-81
2021/11/20 07:32:27;;;;;;;0.00;0.00;;;;;10.40;100689.00;;;;5098049;28;20098;-81
2021/11/20 07:34:58;;;;;;;0.00;0.00;;;;;10.20;100670.00;;;;5092794;28;20044;-83
2021/11/20 07:37:28;;;;;;;0.00;0.00;;;;;10.10;100694.00;;;;5088445;28;20139;-86
2021/11/20 07:39:58;;;;;;;0.00;0.00;;;;;10.10;100674.00;;;;5088247;28;20128;-79
2021/11/20 07:42:29;;;;;;;0.00;0.00;;;;;10.20;100696.00;;;;5072016;28;20407;-79
2021/11/20 07:45:19;;;;;;;0.00;0.00;;;;;10.20;100687.00;;;;5088694;28;20396;-81
2021/11/20 07:48:06;;;;;;;0.08;0.08;;;;;10.20;100694.00;;;;5087984;28;20052;-80
2021/11/20 07:50:40;;;;;;;0.00;0.00;;;;;10.20;100684.00;;;;5087826;28;20048;-83
2021/11/20 07:53:23;;;;;;;0.17;0.17;;;;;10.10;100693.00;;;;5088030;28;20500;-80
2021/11/20 07:55:57;;;;;;;0.00;0.00;;;;;10.10;100706.00;;;;5072563;28;20094;-83
2021/11/20 07:58:27;;;;;;;0.00;0.00;;;;;10.00;100694.00;;;;5088072;28;20483;-84
2021/11/20 08:00:59;;;;;;;0.10;0.10;;;;;10.00;100690.00;;;;5071951;28;20052;-85
2021/11/20 08:03:31;;;;;;;0.00;0.00;;;;;10.20;100706.00;;;;5087953;28;20067;-85
2021/11/20 08:06:19;;;;;;;0.00;0.00;;;;;10.10;100688.00;;;;5089191;28;20055;-80
2021/11/20 08:09:10;;;;;;;0.00;0.00;;;;;10.10;100696.00;;;;5087788;28;20055;-82
2021/11/20 08:11:59;;;;;;;0.00;0.00;;;;;10.10;100688.00;;;;5087854;28;20450;-79
2021/11/20 08:14:49;;;;;;;0.00;0.00;;;;;10.10;100694.00;;;;5088622;28;20880;-84
2021/11/20 08:17:38;;;;;;;0.00;0.00;;;;;10.00;100684.00;;;;5088498;28;20048;-87
2021/11/20 08:20:32;;;;;;;0.00;0.00;;;;;10.00;100681.00;;;;5089283;28;20070;-84
2021/11/20 08:23:25;;;;;;;0.00;0.00;;;;;10.10;100697.00;;;;5088778;28;20044;-80
2021/11/20 08:25:55;;;;;;;0.00;0.00;;;;;10.00;100702.00;;;;5087689;28;20120;-80
2021/11/20 08:28:26;;;;;;;0.00;0.00;;;;;10.10;100702.00;;;;5087224;28;20051;-80
2021/11/20 08:30:57;;;;;;;0.00;0.00;;;;;10.00;100716.00;;;;5087077;28;20073;-81
2021/11/20 08:33:28;;;;;;;0.00;0.00;;;;;10.00;100717.00;;;;5087227;28;20044;-84
2021/11/20 08:36:15;;;;;;;0.00;0.00;;;;;10.00;100707.00;;;;5088999;28;20101;-87
2021/11/20 08:39:05;;;;;;;0.00;0.00;;;;;10.00;100706.00;;;;5088260;28;20533;-84
2021/11/20 08:41:35;;;;;;;0.00;0.00;;;;;10.00;100717.00;;;;5087445;28;20545;-85
2021/11/20 08:44:04;;;;;;;0.00;0.00;;;;;10.10;100726.00;;;;5087291;28;20040;-81
2021/11/20 08:46:45;;;;;;;0.00;0.00;;;;;10.00;100728.00;;;;5087393;28;20511;-87
2021/11/20 08:49:15;;;;;;;0.00;0.00;;;;;10.00;100740.00;;;;5085749;28;20051;-81
2021/11/20 08:51:47;;;;;;;0.00;0.00;;;;;10.20;100732.00;;;;5085383;28;20455;-83
2021/11/20 08:54:17;;;;;;;0.00;0.00;;;;;10.40;100729.00;;;;5085161;28;20052;-82
2021/11/20 08:56:49;;;;;;;0.00;0.00;;;;;10.60;100746.00;;;;5086645;28;20072;-84
2021/11/20 08:59:25;;;;;;;0.00;0.00;;;;;10.70;100743.00;;;;5086451;28;20056;-83
2021/11/20 09:02:49;;;;;;;0.00;0.00;;;;;10.90;100737.00;;;;5087045;28;20125;-86
2021/11/20 09:05:36;;;;;;;0.00;0.00;;;;;11.10;100742.00;;;;5086821;28;20791;-83
2021/11/20 09:08:26;;;;;;;0.00;0.00;;;;;11.20;100754.00;;;;5086328;28;20086;-86
2021/11/20 09:11:15;;;;;;;0.00;0.00;;;;;11.20;100748.00;;;;5086934;28;20078;-85
2021/11/20 09:13:52;;;;;;;0.00;0.00;;;;;11.10;100755.00;;;;5086056;28;20727;-86
2021/11/20 09:16:25;;;;;;;0.00;0.00;;;;;11.20;100757.00;;;;5085996;28;20054;-87
2021/11/20 09:18:58;;;;;;;0.00;0.00;;;;;11.20;100758.00;;;;5086390;28;20052;-80
2021/11/20 09:21:29;;;;;;;0.10;0.10;;;;;11.20;100760.00;;;;5088131;28;20043;-83
2021/11/20 09:24:22;;;;;;;0.00;0.00;;;;;11.30;100766.00;;;;5086227;28;20058;-81
2021/11/20 09:27:12;;;;;;;0.00;0.00;;;;;11.40;100754.00;;;;5087334;28;20052;-87
2021/11/20 09:29:43;;;;;;;;;;;;;11.60;100773.00;;;;5086911;28;20582;-84
2021/11/20 09:32:13;;;;;;;0.10;0.10;;;;;11.80;100755.00;;;;5086412;28;19942;-83
2021/11/20 09:34:44;;;;;;;0.00;0.00;;;;;11.80;100773.00;;;;5086477;28;20573;-83
2021/11/20 09:37:33;;;;;;;0.00;0.00;;;;;11.90;100768.00;;;;5085978;28;20734;-84
2021/11/20 09:40:17;;;;;;;0.10;0.10;;;;;12.20;100771.00;;;;5086089;28;20055;-80
2021/11/20 09:42:54;;;;;;;0.00;0.00;;;;;12.30;100783.00;;;;5085476;28;20055;-85
2021/11/20 09:45:28;;;;;;;1.75;0.43;;;;;12.40;100769.00;;;;5085834;28;20055;-83
2021/11/20 09:48:11;;;;;;;0.00;0.00;;;;;12.50;100774.00;;;;5086186;28;20047;-80
2021/11/20 09:51:07;;;;;;;0.00;0.00;;;;;12.60;100777.00;;;;5085735;28;20051;-84
2021/11/20 09:53:37;;;;;;;0.00;0.00;;;;;12.80;100783.00;;;;5079413;28;20139;-82
2021/11/20 09:56:12;;;;;;;0.10;0.10;;;;;12.80;100799.00;;;;5087356;28;20054;-80
2021/11/20 09:58:45;;;;;;;0.00;0.00;;;;;12.90;100800.00;;;;5087659;28;20055;-84
2021/11/20 10:01:32;;;;;;;0.08;0.08;;;;;13.00;100807.00;;;;5084631;28;20135;-85
2021/11/20 10:04:02;;;;;;;0.30;0.15;;;;;13.10;100811.00;;;;5085774;28;20048;-83
2021/11/20 10:06:46;;;;;;;0.00;0.00;;;;;13.90;100742.00;;;;5085618;28;20044;-84
2021/11/20 10:09:33;;;;;;;0.00;0.00;;;;;17.30;100704.00;;;;5087435;28;20048;-85
2021/11/20 10:12:23;;;;;;;0.00;0.00;;;;;21.40;100563.00;;;;5086996;28;20036;-81
2021/11/20 10:15:09;;;;;;;0.10;0.10;;;;;23.80;100550.00;;;;5083452;28;20059;-83
2021/11/20 10:17:42;;;;;;;2.00;0.50;;;;;24.70;100550.00;;;;5085412;28;20050;-79
2021/11/20 10:20:25;;;;;;;0.00;0.00;;;;;25.50;100562.00;;;;5087576;28;20048;-85
2021/11/20 10:23:01;;;;;;;0.08;0.05;;;;;25.50;100570.00;;;;5086587;28;20036;-83
2021/11/20 10:26:14;;;;;;;0.00;0.00;;;;;24.10;100683.00;;;;5086693;28;20048;-85
2021/11/20 10:29:08;;;;;;;0.30;0.20;;;;;19.30;100754.00;;;;5077028;28;20088;-84
2021/11/20 10:31:45;;;;;;;1.92;0.43;;;;;19.70;100697.00;;;;5093223;28;20048;-80
2021/11/20 10:34:18;;;;;;;0.00;0.00;;;;;22.00;100715.00;;;;5090310;28;20044;-83
2021/11/20 10:37:05;;;;;;;0.00;0.00;;;;;20.70;100750.00;;;;5087269;28;20546;-87
2021/11/20 10:39:36;;;;;;;0.03;0.03;;;;;18.30;100801.00;;;;5086890;28;20151;-82
2021/11/20 10:42:23;;;;;;;0.00;0.00;;;;;17.10;100801.00;;;;5087135;28;20422;-82
2021/11/20 10:45:13;;;;;;;0.05;0.05;;;;;16.90;100809.00;;;;5087310;28;20067;-85
2021/11/20 10:47:51;;;;;;;0.00;0.00;;;;;17.00;100791.00;;;;5087211;28;20044;-84
2021/11/20 10:50:40;;;;;;;0.10;0.10;;;;;19.80;100652.00;;;;5087159;28;20047;-84
2021/11/20 10:53:17;;;;;;;0.00;0.00;;;;;25.80;100605.00;;;;5086479;28;20079;-82
2021/11/20 10:56:06;;;;;;;0.00;0.00;;;;;27.10;100620.00;;;;5090224;28;20059;-83
2021/11/20 10:59:12;;;;;;;0.00;0.00;;;;;27.60;100600.00;;;;5090870;28;20063;-84
2021/11/20 11:02:06;;;;;;;0.00;0.00;;;;;27.90;100590.00;;;;5092963;28;20043;-83
2021/11/20 11:05:05;;;;;;;11.52;1.67;;;;;28.00;100596.00;;;;5093105;28;20048;-84
2021/11/20 11:07:42;;;;;;;0.32;0.20;;;;;27.60;100600.00;;;;5093036;28;20052;-89
2021/11/20 11:10:20;;;;;;;0.00;0.00;;;;;27.70;100595.00;;;;5090018;28;20044;-83
2021/11/20 11:13:05;;;;;;;0.00;0.00;;;;;27.60;100580.00;;;;5091245;28;20044;-84
2021/11/20 11:15:53;;;;;;;0.08;0.00;;;;;27.40;100592.00;;;;5090000;28;20609;-83
2021/11/20 11:18:44;;;;;;;0.05;0.05;;;;;27.10;100568.00;;;;5090281;28;20039;-86
2021/11/20 11:21:23;;;;;;;0.32;0.28;;;;;26.50;100578.00;;;;5088488;28;20077;-83
2021/11/20 11:24:11;;;;;;;0.00;0.00;;;;;26.60;100573.00;;;;5090415;28;20094;-87
2021/11/20 11:26:54;;;;;;;0.00;0.00;;;;;26.10;100583.00;;;;5089435;28;20044;-83
2021/11/20 11:29:33;;;;;;;0.10;0.10;;;;;25.40;100579.00;;;;5090478;28;20504;-85
2021/11/20 11:32:05;;;;;;;0.00;0.00;;;;;24.90;100592.00;;;;5090460;28;20043;-81
2021/11/20 11:34:39;;;;;;;0.00;0.00;;;;;24.70;100595.00;;;;5089955;28;20456;-86
2021/11/20 11:37:40;;;;;;;0.00;0.00;;;;;24.10;100622.00;;;;5089221;28;20044;-87
2021/11/20 11:40:43;;;;;;;0.47;0.20;;;;;24.00;100734.00;;;;5087847;28;20085;-82
2021/11/20 11:43:28;;;;;;;0.93;0.20;;;;;23.20;100775.00;;;;5089453;28;20040;-84
2021/11/20 11:46:20;;;;;;;0.20;0.20;;;;;22.40;100787.00;;;;5087857;28;20052;-83
2021/11/20 11:49:43;;;;;;;5.63;1.45;;;;;22.20;100780.00;;;;5088402;28;20055;-84
2021/11/20 11:52:38;;;;;;;0.00;0.00;;;;;22.00;100784.00;;;;5082281;28;20080;-85
2021/11/20 11:55:42;;;;;;;0.00;0.00;;;;;22.50;100775.00;;;;5089493;28;20044;-84
2021/11/20 11:58:34;;;;;;;0.60;0.25;;;;;22.70;100787.00;;;;5083628;28;20056;-86
2021/11/20 12:01:20;;;;;;;0.75;0.47;;;;;22.50;100780.00;;;;5087897;28;20044;-84
2021/11/20 12:04:08;;;;;;;0.00;0.00;;;;;23.00;100775.00;;;;5072313;28;20131;-82
2021/11/20 12:06:47;;;;;;;0.00;0.00;;;;;23.00;100784.00;;;;5096999;28;20032;-78
2021/11/20 12:09:27;;;;;;;0.30;0.20;;;;;23.30;100790.00;;;;5098148;28;20123;-84
2021/11/20 12:12:11;;;;;;;0.00;0.00;;;;;23.30;100781.00;;;;5097300;28;20051;-82
2021/11/20 12:14:44;;;;;;;1.63;0.22;;;;;23.20;100767.00;;;;5088838;28;20052;-83
2021/11/20 12:17:44;;;;;;;2.72;1.20;;;;;23.70;100776.00;;;;5088100;28;20113;-87
2021/11/20 12:20:39;;;;;;;0.00;0.00;;;;;23.70;100794.00;;;;5087484;28;20155;-79
2021/11/20 12:24:01;;;;;;;2.17;0.90;;;;;24.00;100779.00;;;;5089020;28;20058;-80
2021/11/20 12:26:35;;;;;;;;;;;;;23.90;100784.00;;;;5065871;28;20064;-78
2021/11/20 12:29:16;;;;;;;0.30;0.30;;;;;24.20;100780.00;;;;5088365;28;20287;-78
2021/11/20 12:32:06;;;;;;;;;;;;;24.00;100789.00;;;;5088457;28;20568;-79
2021/11/20 12:35:06;;;;;;;0.00;0.00;;;;;24.30;100789.00;;;;5088521;28;19978;-79
2021/11/20 12:37:56;;;;;;;0.47;0.43;;;;;24.70;100789.00;;;;5087137;28;20537;-80
2021/11/20 12:40:29;;;;;;;1.92;0.22;;;;;24.70;100788.00;;;;5087955;28;20054;-79
2021/11/20 12:43:37;;;;;;;1.77;0.70;;;;;24.90;100782.00;;;;5085321;28;20071;-78
2021/11/20 12:46:09;;;;;;;0.00;0.00;;;;;24.90;100778.00;;;;5081500;28;20047;-79
2021/11/20 12:49:01;;;;;;;0.50;0.30;;;;;24.70;100774.00;;;;5087381;28;20044;-79
2021/11/20 12:51:51;;;;;;;0.20;0.15;;;;;25.10;100760.00;;;;5086169;28;20067;-81
2021/11/20 12:55:01;;;;;;;0.00;0.00;;;;;25.20;100758.00;;;;5086385;28;20139;-78
2021/11/20 12:57:42;;;;;;;0.10;0.10;;;;;25.60;100783.00;;;;5066616;28;20572;-80
2021/11/20 13:00:29;;;;;;;0.00;0.00;;;;;25.60;100779.00;;;;5086052;28;20097;-78
2021/11/20 13:03:05;;;;;;;1.50;0.57;;;;;25.60;100771.00;;;;5087934;27;20089;-79
2021/11/20 13:05:41;;;;;;;0.00;0.00;;;;;25.30;100769.00;;;;5089147;27;20044;-79
2021/11/20 13:08:23;;;;;;;0.00;0.00;;;;;25.00;100777.00;;;;5087254;28;20070;-79
2021/11/20 13:11:08;;;;;;;0.00;0.00;;;;;25.60;100762.00;;;;5090560;27;20032;-80
2021/11/20 13:13:51;;;;;;;0.00;0.00;;;;;25.70;100762.00;;;;5095446;27;20500;-78
2021/11/20 13:16:45;;;;;;;95.30;15.75;;;;;26.30;100750.00;;;;5101912;28;20050;-79